Time;durP1;ratioP1;P1;durP2;ratioP2;P2;SDS_P1;SDS_P2;PMS_P1;PMS_P2;Temp;Humidity;BMP_temperature;BMP_pressure;BME280_temperature;BME280_humidity;BME280_pressure;Samples;Min_cycle;Max_cycle;Signal;HPM_P1;HPM_P2
2022/01/17 00:01:09;;;;;;;16.30;8.50;;;12.60;82.60;;;;;;10519509;28;20274;-80
2022/01/17 00:06:17;;;;;;;11.30;8.23;;;12.60;82.50;;;;;;10521389;28;20629;-80
2022/01/17 00:11:20;;;;;;;12.77;7.93;;;12.60;82.50;;;;;;10523784;28;20275;-80
2022/01/17 00:16:32;;;;;;;14.43;8.03;;;12.60;82.60;;;;;;10523655;28;20306;-79
2022/01/17 00:21:35;;;;;;;11.20;8.10;;;12.60;82.70;;;;;;10525022;28;20198;-78
2022/01/17 00:26:37;;;;;;;14.00;7.90;;;12.50;83.10;;;;;;10525389;28;20248;-82
2022/01/17 00:31:40;;;;;;;14.17;9.43;;;12.50;83.30;;;;;;10524248;28;20604;-82
2022/01/17 00:36:42;;;;;;;13.50;7.93;;;12.40;83.40;;;;;;10523651;28;20317;-81
2022/01/17 00:41:45;;;;;;;10.63;7.77;;;12.50;83.50;;;;;;10524224;28;20206;-81
2022/01/17 00:46:49;;;;;;;12.23;7.20;;;12.50;83.40;;;;;;10525026;28;20225;-82
2022/01/17 00:51:52;;;;;;;13.10;7.73;;;12.40;83.90;;;;;;10497773;28;20221;-82
2022/01/17 00:56:54;;;;;;;9.77;7.07;;;12.50;83.20;;;;;;10496808;28;20239;-81
2022/01/17 01:01:57;;;;;;;9.00;7.00;;;12.60;83.10;;;;;;10478376;28;20233;-81
2022/01/17 01:07:00;;;;;;;11.97;7.93;;;12.50;82.80;;;;;;10496746;28;20241;-82
2022/01/17 01:12:03;;;;;;;10.63;7.27;;;12.60;82.60;;;;;;10495684;28;20239;-82
2022/01/17 01:17:08;;;;;;;13.23;7.60;;;12.60;82.30;;;;;;10495667;28;20250;-81
2022/01/17 01:32:43;;;;;;;9.17;6.67;;;12.60;82.80;;;;;;10495316;28;20255;-82
2022/01/17 01:37:47;;;;;;;10.33;6.63;;;12.60;82.60;;;;;;10493851;28;20734;-82
2022/01/17 01:42:51;;;;;;;9.10;6.60;;;12.60;82.70;;;;;;10494650;28;20226;-82
2022/01/17 01:47:54;;;;;;;9.47;6.73;;;12.70;82.60;;;;;;10494044;28;20606;-81
2022/01/17 01:52:57;;;;;;;12.47;7.43;;;12.70;82.70;;;;;;10493722;28;20238;-81
2022/01/17 01:57:59;;;;;;;10.33;6.37;;;12.70;82.50;;;;;;10492564;28;20304;-82
2022/01/17 02:03:04;;;;;;;7.67;5.73;;;12.60;82.50;;;;;;10491380;28;20620;-82
2022/01/17 02:08:11;;;;;;;12.27;6.30;;;12.60;82.80;;;;;;10490519;28;20230;-82
2022/01/17 02:13:14;;;;;;;8.20;5.50;;;12.70;82.40;;;;;;10491693;28;20202;-82
2022/01/17 02:18:29;;;;;;;9.50;6.07;;;12.80;82.20;;;;;;10492978;28;20252;-82
2022/01/17 02:23:32;;;;;;;9.40;5.63;;;12.60;82.30;;;;;;10491916;28;20255;-82
2022/01/17 02:28:36;;;;;;;7.50;5.57;;;12.60;82.70;;;;;;10491662;28;20233;-82
2022/01/17 02:33:39;;;;;;;8.70;6.17;;;12.60;81.20;;;;;;10492503;28;20230;-82
2022/01/17 02:38:41;;;;;;;7.70;5.40;;;12.30;81.20;;;;;;10490905;28;20638;-81
2022/01/17 02:43:46;;;;;;;5.90;4.47;;;12.50;81.90;;;;;;10490990;28;20208;-82
2022/01/17 02:48:48;;;;;;;8.20;4.87;;;12.60;82.20;;;;;;10475191;28;20554;-81
2022/01/17 02:53:51;;;;;;;6.07;4.63;;;12.60;80.90;;;;;;10490565;28;20669;-82
2022/01/17 02:58:55;;;;;;;5.87;4.20;;;12.70;81.70;;;;;;10490030;28;20312;-81
2022/01/17 03:03:58;;;;;;;5.40;4.40;;;12.60;81.50;;;;;;10491411;28;20226;-81
2022/01/17 03:09:00;;;;;;;7.93;4.90;;;12.40;82.00;;;;;;10490576;28;20280;-82
2022/01/17 03:14:03;;;;;;;4.90;4.17;;;12.60;81.60;;;;;;10489802;28;20256;-81
2022/01/17 03:19:05;;;;;;;7.53;4.57;;;12.50;81.40;;;;;;10490172;28;20214;-81
2022/01/17 03:24:08;;;;;;;6.23;4.50;;;12.50;81.70;;;;;;10490740;28;20634;-81
2022/01/17 03:29:10;;;;;;;4.30;3.67;;;12.50;81.00;;;;;;10491140;28;20210;-82
2022/01/17 03:34:13;;;;;;;5.70;3.60;;;12.40;81.50;;;;;;10490489;28;20232;-82
2022/01/17 03:39:15;;;;;;;8.80;3.67;;;12.30;81.20;;;;;;10488594;28;20710;-82
2022/01/17 03:44:18;;;;;;;6.70;3.83;;;12.60;80.80;;;;;;10489586;28;20269;-81
2022/01/17 03:49:20;;;;;;;5.37;2.93;;;12.60;81.10;;;;;;10489359;28;20291;-82
2022/01/17 03:54:23;;;;;;;5.67;3.53;;;12.40;81.30;;;;;;10490544;28;20235;-81
2022/01/17 03:59:25;;;;;;;4.83;2.90;;;12.70;80.40;;;;;;10488301;28;20314;-82
2022/01/17 04:04:28;;;;;;;5.40;3.50;;;12.70;80.30;;;;;;10489045;28;20198;-82
2022/01/17 04:09:30;;;;;;;5.97;3.70;;;12.50;80.00;;;;;;10490936;28;20687;-81
2022/01/17 04:14:35;;;;;;;5.30;2.87;;;12.60;80.50;;;;;;10489925;28;20242;-81
2022/01/17 04:19:39;;;;;;;5.50;3.20;;;12.40;80.80;;;;;;10487971;28;20336;-81
2022/01/17 04:24:41;;;;;;;4.53;3.10;;;12.50;80.60;;;;;;10492039;28;20222;-81
2022/01/17 04:29:44;;;;;;;4.90;2.87;;;12.50;81.10;;;;;;10495845;28;20223;-82
2022/01/17 04:34:46;;;;;;;4.27;2.50;;;12.60;79.30;;;;;;10495690;28;20199;-81
2022/01/17 04:39:49;;;;;;;4.63;2.87;;;12.50;80.60;;;;;;10495113;28;20332;-81
2022/01/17 04:45:07;;;;;;;4.80;2.80;;;12.80;80.40;;;;;;10494634;28;20227;-82
2022/01/17 04:50:15;;;;;;;3.70;2.60;;;12.60;80.40;;;;;;10475874;28;20239;-81
2022/01/17 04:55:19;;;;;;;4.13;2.53;;;12.70;80.50;;;;;;10495251;28;20222;-82
2022/01/17 05:00:23;;;;;;;2.53;2.33;;;12.70;79.60;;;;;;10494395;28;20292;-81
2022/01/17 05:05:26;;;;;;;4.70;3.17;;;12.60;80.10;;;;;;10495029;28;20807;-82
2022/01/17 05:10:28;;;;;;;4.33;2.23;;;12.50;81.00;;;;;;10494250;28;20615;-81
2022/01/17 05:15:35;;;;;;;4.23;2.40;;;12.10;81.40;;;;;;10494474;28;20633;-81
2022/01/17 05:20:39;;;;;;;3.83;1.90;;;12.40;81.20;;;;;;10495235;28;20306;-82
2022/01/17 05:25:42;;;;;;;3.73;2.23;;;12.50;80.80;;;;;;10494868;28;20226;-81
2022/01/17 05:30:44;;;;;;;3.57;2.00;;;12.60;80.40;;;;;;10495536;28;20556;-82
2022/01/17 05:35:48;;;;;;;2.97;1.93;;;12.50;80.40;;;;;;10493285;28;20257;-81
2022/01/17 05:40:50;;;;;;;2.37;1.50;;;12.60;80.00;;;;;;10488490;28;20280;-81
2022/01/17 05:45:53;;;;;;;11.73;2.20;;;12.60;79.50;;;;;;10490700;28;20230;-81
2022/01/17 05:50:56;;;;;;;5.80;2.10;;;10.20;80.20;;;;;;10509688;28;20271;-81
2022/01/17 05:55:58;;;;;;;9.73;1.80;;;11.30;78.00;;;;;;10496151;28;20676;-81
2022/01/17 06:01:01;;;;;;;6.10;1.00;;;11.90;75.80;;;;;;10508091;28;20299;-81
2022/01/17 06:06:05;;;;;;;7.83;1.30;;;12.10;75.00;;;;;;10502223;28;20218;-81
2022/01/17 06:11:08;;;;;;;6.77;1.37;;;12.30;74.90;;;;;;10494605;28;20625;-81
2022/01/17 06:16:10;;;;;;;9.37;1.57;;;12.20;75.00;;;;;;10493060;28;20275;-81
2022/01/17 06:21:13;;;;;;;8.67;1.53;;;12.40;75.00;;;;;;10493155;28;20253;-81
2022/01/17 06:26:15;;;;;;;2.57;1.13;;;12.30;75.30;;;;;;10493090;28;20317;-80
2022/01/17 06:31:18;;;;;;;4.60;1.23;;;12.40;75.20;;;;;;10493752;28;20226;-80
2022/01/17 06:36:20;;;;;;;8.10;1.70;;;12.50;75.20;;;;;;10493462;28;20660;-81
2022/01/17 06:41:23;;;;;;;2.63;1.27;;;12.40;75.70;;;;;;10493697;28;20293;-81
2022/01/17 06:46:26;;;;;;;5.90;1.70;;;12.50;75.50;;;;;;10492264;28;20225;-81
2022/01/17 06:51:29;;;;;;;5.53;1.70;;;12.40;76.10;;;;;;10492295;28;20315;-81
2022/01/17 06:56:31;;;;;;;3.93;1.13;;;12.50;75.90;;;;;;10491845;28;20206;-81
2022/01/17 07:01:38;;;;;;;3.13;1.50;;;12.60;75.90;;;;;;10493630;28;20249;-81
2022/01/17 07:06:40;;;;;;;5.07;1.10;;;12.60;76.30;;;;;;10491783;28;20292;-81
2022/01/17 07:11:43;;;;;;;5.07;1.40;;;12.50;76.50;;;;;;10491784;28;20545;-81
2022/01/17 07:16:46;;;;;;;2.13;0.90;;;12.60;76.50;;;;;;10489045;28;20647;-81
2022/01/17 07:21:49;;;;;;;2.63;0.87;;;12.50;77.00;;;;;;10491757;28;20249;-81
2022/01/17 07:27:12;;;;;;;3.23;0.90;;;12.40;77.30;;;;;;10476641;28;20238;-81
2022/01/17 07:32:14;;;;;;;3.70;0.80;;;12.30;77.80;;;;;;10488651;28;20230;-81
2022/01/17 07:37:19;;;;;;;2.23;0.73;;;12.30;77.80;;;;;;10490219;28;20291;-81
2022/01/17 07:42:23;;;;;;;1.33;0.73;;;12.30;78.00;;;;;;10487260;28;20262;-81
2022/01/17 07:48:44;;;;;;;1.57;0.80;;;12.40;77.80;;;;;;10486961;28;20225;-82
2022/01/17 07:52:51;;;;;;;4.67;1.07;;;12.40;78.10;;;;;;10481503;28;20238;-82
2022/01/17 07:57:55;;;;;;;2.13;0.73;;;12.40;78.10;;;;;;10488991;28;20241;-82
2022/01/17 08:02:58;;;;;;;2.97;1.10;;;12.40;78.40;;;;;;10495687;28;20819;-82
2022/01/17 08:08:01;;;;;;;2.27;0.90;;;12.40;78.40;;;;;;10486099;28;20283;-82
2022/01/17 08:13:04;;;;;;;2.67;1.10;;;12.40;78.40;;;;;;10497185;28;20206;-83
2022/01/17 08:18:06;;;;;;;5.37;1.20;;;12.30;79.00;;;;;;10496769;28;20255;-81
2022/01/17 08:23:10;;;;;;;1.40;0.50;;;12.50;78.70;;;;;;10503393;28;20222;-81
2022/01/17 08:28:13;;;;;;;3.63;0.87;;;12.40;79.10;;;;;;10497097;28;20251;-82
2022/01/17 08:33:16;;;;;;;2.17;1.03;;;12.40;79.10;;;;;;10496886;28;20234;-80
2022/01/17 08:38:19;;;;;;;1.80;0.90;;;12.50;78.80;;;;;;10479277;28;20278;-81
2022/01/17 08:43:21;;;;;;;5.07;0.87;;;12.40;79.40;;;;;;10505882;28;20225;-80
2022/01/17 08:48:24;;;;;;;2.47;0.73;;;12.30;79.60;;;;;;10504510;28;20230;-81
2022/01/17 08:53:26;;;;;;;4.70;1.57;;;12.10;80.30;;;;;;10497328;28;20230;-80
2022/01/17 08:58:29;;;;;;;4.67;1.10;;;11.50;82.60;;;;;;10495662;28;20271;-82
2022/01/17 09:03:31;;;;;;;1.97;0.70;;;12.00;81.80;;;;;;10495407;28;20230;-80
2022/01/17 09:08:34;;;;;;;3.23;0.80;;;11.60;84.40;;;;;;10504240;28;20831;-82
2022/01/17 09:13:37;;;;;;;2.13;0.40;;;7.80;99.90;;;;;;10493740;28;20708;-81
2022/01/17 09:18:39;;;;;;;2.23;1.43;;;4.60;99.90;;;;;;10493992;28;20260;-80
2022/01/17 09:23:42;;;;;;;3.00;0.70;;;4.10;99.90;;;;;;10494649;28;20263;-81
2022/01/17 09:28:45;;;;;;;2.17;1.20;;;3.40;99.90;;;;;;10495289;28;20230;-81
2022/01/17 09:33:47;;;;;;;1.57;1.03;;;3.40;99.90;;;;;;10493195;28;20202;-81
2022/01/17 09:38:50;;;;;;;0.83;0.73;;;3.50;99.90;;;;;;10504202;28;20307;-81
2022/01/17 09:43:53;;;;;;;3.83;0.97;;;3.80;99.90;;;;;;10493790;28;20284;-81
2022/01/17 09:49:02;;;;;;;1.27;0.60;;;3.50;99.90;;;;;;10494591;28;20682;-81
2022/01/17 09:54:05;;;;;;;3.87;1.03;;;4.40;99.90;;;;;;10491899;28;20291;-80
2022/01/17 09:59:08;;;;;;;0.93;0.60;;;5.50;99.90;;;;;;10492478;28;20241;-80
2022/01/17 10:04:10;;;;;;;1.00;0.70;;;5.80;99.90;;;;;;10492916;28;20275;-79
2022/01/17 10:09:17;;;;;;;3.63;0.83;;;5.30;99.90;;;;;;10494125;28;20234;-79
2022/01/17 10:14:38;;;;;;;3.43;1.00;;;6.70;99.90;;;;;;10490625;28;20295;-79
2022/01/17 10:19:43;;;;;;;3.30;0.80;;;6.50;99.20;;;;;;10491424;28;20246;-83
2022/01/17 10:35:11;;;;;;;1.97;1.00;;;9.80;99.90;;;;;;10490597;28;20202;-79
2022/01/17 10:40:15;;;;;;;2.43;1.10;;;7.30;92.80;;;;;;10491901;28;20257;-79
2022/01/17 10:45:24;;;;;;;2.43;2.23;;;9.30;98.70;;;;;;10507098;28;20229;-79
2022/01/17 10:50:32;;;;;;;6.07;1.70;;;7.20;99.90;;;;;;10513450;28;20260;-81
2022/01/17 10:55:37;;;;;;;1.60;0.80;;;8.90;99.90;;;;;;10501556;28;20286;-79
2022/01/17 11:00:46;;;;;;;2.17;1.03;;;6.70;99.90;;;;;;10507771;28;20248;-81
2022/01/17 11:05:52;;;;;;;2.83;1.03;;;7.70;99.90;;;;;;10516773;28;20617;-80
2022/01/17 11:10:57;;;;;;;2.33;0.80;;;9.50;98.30;;;;;;10517186;28;20598;-80
2022/01/17 11:16:07;;;;;;;1.73;0.87;;;9.40;98.50;;;;;;10489279;28;20230;-79
2022/01/17 11:21:16;;;;;;;1.30;0.70;;;10.00;96.00;;;;;;10490619;28;20760;-78
2022/01/17 11:26:18;;;;;;;2.13;1.23;;;9.00;98.90;;;;;;10510238;28;20725;-78
2022/01/17 11:31:21;;;;;;;3.43;1.27;;;10.40;90.60;;;;;;10490432;28;20242;-80
2022/01/17 11:36:24;;;;;;;10.60;5.33;;;10.80;88.80;;;;;;10487910;28;20261;-79
2022/01/17 11:41:29;;;;;;;3.70;1.30;;;10.00;83.40;;;;;;10487175;28;20246;-79
2022/01/17 11:46:34;;;;;;;2.27;1.20;;;9.80;93.70;;;;;;10490509;28;20214;-80
2022/01/17 11:51:44;;;;;;;2.10;0.97;;;8.50;94.10;;;;;;10488607;28;20287;-80
2022/01/17 11:56:52;;;;;;;2.00;1.10;;;10.30;90.50;;;;;;10488374;28;20242;-79
2022/01/17 12:02:10;;;;;;;1.20;0.70;;;9.60;92.40;;;;;;10509007;28;20253;-79
2022/01/17 12:07:13;;;;;;;3.10;1.03;;;11.00;82.20;;;;;;10494883;28;20763;-79
2022/01/17 12:12:16;;;;;;;1.57;0.73;;;10.10;83.90;;;;;;10510771;28;20297;-79
2022/01/17 12:17:25;;;;;;;3.03;0.70;;;11.20;87.00;;;;;;10516224;28;20226;-80
2022/01/17 12:22:28;;;;;;;8.50;2.10;;;11.50;86.80;;;;;;10496565;28;20257;-79
2022/01/17 12:27:34;;;;;;;6.70;1.50;;;10.40;78.90;;;;;;10531144;28;20263;-80
2022/01/17 12:32:40;;;;;;;1.83;1.03;;;10.80;88.90;;;;;;10494310;28;20237;-79
2022/01/17 12:38:03;;;;;;;4.50;1.50;;;9.40;93.10;;;;;;10468174;28;20320;-79
2022/01/17 12:43:30;;;;;;;3.20;1.17;;;9.30;92.00;;;;;;10481523;28;20246;-80
2022/01/17 12:48:36;;;;;;;4.30;1.57;;;10.10;90.10;;;;;;10454536;28;20257;-80
2022/01/17 12:53:38;;;;;;;2.17;1.07;;;7.60;83.50;;;;;;10454651;28;20234;-80
2022/01/17 12:58:41;;;;;;;2.33;0.97;;;9.50;72.70;;;;;;10452343;28;20231;-80
2022/01/17 13:03:46;;;;;;;2.63;1.00;;;7.30;91.30;;;;;;10446149;28;20250;-79
2022/01/17 13:08:50;;;;;;;3.03;1.23;;;7.50;96.50;;;;;;10483948;28;20230;-79
2022/01/17 13:13:58;;;;;;;2.93;1.20;;;8.40;81.00;;;;;;10453193;28;20223;-79
2022/01/17 13:19:03;;;;;;;2.57;1.10;;;10.40;79.50;;;;;;10452786;28;20222;-79
2022/01/17 13:24:24;;;;;;;3.10;0.80;;;8.90;90.10;;;;;;10453745;28;20198;-79
2022/01/17 13:29:27;;;;;;;3.37;1.50;;;9.40;90.40;;;;;;10452424;28;20227;-79
2022/01/17 13:34:30;;;;;;;2.53;1.30;;;7.50;88.20;;;;;;10454234;28;20679;-79
2022/01/17 13:39:33;;;;;;;4.20;1.37;;;8.90;89.40;;;;;;10454015;28;20331;-78
2022/01/17 13:44:38;;;;;;;5.23;1.13;;;8.80;84.10;;;;;;10453444;28;20230;-79
2022/01/17 13:49:46;;;;;;;2.13;1.00;;;8.50;82.10;;;;;;10451684;28;20199;-79
2022/01/17 13:54:54;;;;;;;10.17;3.37;;;8.20;91.20;;;;;;10452767;28;20288;-79
2022/01/17 14:00:17;;;;;;;13.93;2.73;;;7.10;67.20;;;;;;10453189;28;20250;-79
2022/01/17 14:05:33;;;;;;;6.50;2.00;;;6.40;65.50;;;;;;10475720;28;20214;-79
2022/01/17 14:10:36;;;;;;;5.33;2.27;;;6.70;69.50;;;;;;10494583;28;20271;-79
2022/01/17 14:15:38;;;;;;;7.57;2.43;;;7.30;67.80;;;;;;10469659;28;20745;-79
2022/01/17 14:20:55;;;;;;;5.20;2.30;;;6.30;69.90;;;;;;10453048;28;20296;-79
2022/01/17 14:25:58;;;;;;;6.97;2.17;;;6.20;68.80;;;;;;10450648;28;20219;-79
2022/01/17 14:31:14;;;;;;;9.53;3.07;;;5.80;70.30;;;;;;10450391;28;20231;-79
2022/01/17 14:36:20;;;;;;;4.50;1.87;;;6.00;70.50;;;;;;10431700;28;20246;-79
2022/01/17 14:41:34;;;;;;;14.50;6.33;;;6.10;67.80;;;;;;10449566;28;20296;-80
2022/01/17 14:46:50;;;;;;;7.27;1.97;;;6.40;66.20;;;;;;10445551;28;20284;-79
2022/01/17 14:51:54;;;;;;;18.50;3.33;;;5.90;75.40;;;;;;10447490;28;20226;-80
2022/01/17 15:07:21;;;;;;;7.00;2.73;;;6.00;76.70;;;;;;10447406;28;20729;-80
2022/01/17 15:12:24;;;;;;;11.37;3.30;;;7.10;78.20;;;;;;10447630;28;20226;-79
2022/01/17 15:17:30;;;;;;;10.80;4.50;;;6.30;71.20;;;;;;10456359;28;20223;-80
2022/01/17 15:22:33;;;;;;;13.50;5.23;;;5.40;72.40;;;;;;10449339;28;20284;-80
2022/01/17 15:27:36;;;;;;;20.60;6.37;;;5.40;76.10;;;;;;10449415;28;20253;-80
2022/01/17 15:32:39;;;;;;;21.27;7.17;;;5.80;74.80;;;;;;10447694;28;20227;-80
2022/01/17 15:37:42;;;;;;;15.57;5.20;;;5.20;76.70;;;;;;10464035;28;20300;-80
2022/01/17 15:42:46;;;;;;;57.67;25.50;;;5.40;77.00;;;;;;10449707;28;20253;-80
2022/01/17 15:47:49;;;;;;;89.40;38.83;;;5.50;74.60;;;;;;10459413;28;20230;-80
2022/01/17 15:52:52;;;;;;;63.73;24.27;;;5.70;77.50;;;;;;10450120;28;20230;-80
2022/01/17 15:57:54;;;;;;;26.13;8.53;;;5.80;72.10;;;;;;10488352;28;20242;-79
2022/01/17 16:02:57;;;;;;;15.97;8.33;;;5.60;71.60;;;;;;10488754;28;20279;-80
2022/01/17 16:08:00;;;;;;;13.53;6.00;;;6.50;78.70;;;;;;10490586;28;20692;-80
2022/01/17 16:13:10;;;;;;;18.10;5.20;;;5.90;82.60;;;;;;10505881;28;20236;-80
2022/01/17 16:18:15;;;;;;;20.23;7.57;;;6.10;78.90;;;;;;10506092;28;20295;-80
2022/01/17 16:23:19;;;;;;;8.80;3.47;;;6.50;72.80;;;;;;10457810;28;20292;-81
2022/01/17 16:28:21;;;;;;;9.17;3.50;;;6.50;83.00;;;;;;10454763;28;20300;-80
2022/01/17 16:33:26;;;;;;;16.20;6.87;;;7.80;75.70;;;;;;10455584;28;20707;-80
2022/01/17 16:38:49;;;;;;;12.20;5.17;;;5.50;71.20;;;;;;10454070;28;20638;-80
2022/01/17 16:43:51;;;;;;;12.00;4.57;;;5.50;78.90;;;;;;10451615;28;20308;-81
2022/01/17 16:48:54;;;;;;;12.87;3.50;;;6.40;79.10;;;;;;10458171;28;20272;-81
2022/01/17 16:53:56;;;;;;;7.20;3.73;;;5.30;75.20;;;;;;10472417;28;20226;-84
2022/01/17 16:58:58;;;;;;;7.40;3.97;;;6.00;79.20;;;;;;10459703;28;20269;-84
2022/01/17 17:04:02;;;;;;;19.20;7.00;;;6.90;78.50;;;;;;10457518;28;20268;-83
2022/01/17 17:09:04;;;;;;;16.87;5.57;;;5.70;73.90;;;;;;10454436;28;20296;-83
2022/01/17 17:14:12;;;;;;;7.53;3.90;;;5.20;74.50;;;;;;10465288;28;20678;-83
2022/01/17 17:19:14;;;;;;;22.87;7.37;;;7.20;90.20;;;;;;10461573;28;20250;-83
2022/01/17 17:24:18;;;;;;;6.70;2.63;;;6.30;72.60;;;;;;10471633;28;20268;-82
2022/01/17 17:29:21;;;;;;;10.47;3.43;;;6.40;69.90;;;;;;10456043;28;20215;-82
2022/01/17 17:34:23;;;;;;;10.63;4.00;;;8.10;91.40;;;;;;10461659;28;20239;-81
2022/01/17 17:39:27;;;;;;;9.47;4.33;;;9.00;89.90;;;;;;10451712;28;20259;-81
2022/01/17 17:44:33;;;;;;;7.20;3.43;;;9.50;87.80;;;;;;10104932;28;9999938;-81
2022/01/17 17:49:36;;;;;;;4.97;2.37;;;10.60;75.60;;;;;;10478392;28;20230;-81
2022/01/17 17:54:39;;;;;;;5.10;3.03;;;11.20;84.30;;;;;;10485335;28;20238;-81
2022/01/17 17:59:45;;;;;;;6.57;3.37;;;11.80;82.20;;;;;;10453575;28;20290;-81
2022/01/17 18:04:48;;;;;;;5.57;3.40;;;12.10;77.80;;;;;;10450123;28;20246;-82
2022/01/17 18:09:50;;;;;;;5.77;3.30;;;11.60;81.10;;;;;;10457989;28;20293;-81
2022/01/17 18:14:53;;;;;;;9.33;3.23;;;11.40;83.70;;;;;;10449231;28;20253;-81
2022/01/17 18:19:55;;;;;;;9.17;3.77;;;12.20;80.60;;;;;;10447830;28;20275;-82
2022/01/17 18:24:58;;;;;;;7.20;2.90;;;12.50;80.00;;;;;;10450134;28;20307;-81
2022/01/17 18:30:00;;;;;;;4.33;2.77;;;11.90;80.50;;;;;;10448081;28;20265;-81
2022/01/17 18:35:04;;;;;;;5.80;2.83;;;11.70;83.00;;;;;;10448486;28;20687;-81
2022/01/17 18:40:07;;;;;;;8.60;3.33;;;12.20;82.30;;;;;;10448349;28;20276;-81
2022/01/17 18:45:10;;;;;;;14.20;6.73;;;12.10;81.60;;;;;;10458323;28;20242;-81
2022/01/17 18:50:13;;;;;;;6.53;3.93;;;12.60;80.80;;;;;;10490882;28;20280;-80
2022/01/17 18:55:15;;;;;;;6.90;3.37;;;12.50;80.00;;;;;;10467771;28;20291;-81
2022/01/17 19:00:19;;;;;;;10.63;5.33;;;12.50;81.10;;;;;;10446631;28;20683;-81
2022/01/17 19:05:22;;;;;;;11.70;4.37;;;12.00;72.60;;;;;;10447679;28;20257;-81
2022/01/17 19:10:25;;;;;;;7.20;3.53;;;12.20;78.90;;;;;;10445806;28;20227;-81
2022/01/17 19:15:27;;;;;;;9.47;3.13;;;12.30;82.20;;;;;;10463203;28;20293;-81
2022/01/17 19:25:32;;;;;;;10.90;3.90;;;12.60;80.70;;;;;;10458102;28;20258;-81
2022/01/17 19:30:35;;;;;;;9.27;4.17;;;12.10;78.90;;;;;;10450009;28;20251;-81
2022/01/17 19:35:38;;;;;;;5.73;3.47;;;12.70;80.30;;;;;;10450048;28;20279;-82
2022/01/17 19:40:42;;;;;;;8.10;3.77;;;12.60;80.60;;;;;;10448164;28;20258;-81
2022/01/17 19:45:45;;;;;;;6.80;3.63;;;12.60;81.10;;;;;;10458891;28;21164;-81
2022/01/17 19:50:48;;;;;;;9.73;3.57;;;12.70;80.30;;;;;;10465320;28;20610;-82
2022/01/17 19:55:50;;;;;;;5.07;2.90;;;12.60;80.50;;;;;;10459897;28;20218;-81
2022/01/17 20:00:53;;;;;;;6.60;4.07;;;12.70;80.10;;;;;;10468791;28;20279;-81
2022/01/17 20:05:56;;;;;;;5.73;3.00;;;12.10;80.60;;;;;;10464699;28;20219;-81
2022/01/17 20:10:58;;;;;;;11.27;4.47;;;12.70;80.20;;;;;;10482932;28;20788;-81
2022/01/17 20:16:01;;;;;;;8.10;3.87;;;12.40;78.90;;;;;;10461364;28;20281;-81
2022/01/17 20:21:03;;;;;;;7.50;4.33;;;12.60;80.20;;;;;;10454539;28;20243;-81
2022/01/17 20:26:06;;;;;;;24.53;7.87;;;12.60;80.50;;;;;;10454595;28;20287;-80
2022/01/17 20:31:09;;;;;;;21.10;8.57;;;2.90;86.80;;;;;;10453756;28;20696;-80
2022/01/17 20:36:12;;;;;;;22.87;8.73;;;1.40;95.70;;;;;;10454409;28;20303;-80
2022/01/17 20:41:14;;;;;;;23.33;6.97;;;0.90;98.80;;;;;;9751416;28;10000954;-80
2022/01/17 20:46:17;;;;;;;24.60;6.83;;;0.80;99.90;;;;;;10465881;28;20646;-81
2022/01/17 20:51:20;;;;;;;16.40;7.20;;;0.60;99.90;;;;;;10449319;28;20389;-81
2022/01/17 20:56:27;;;;;;;13.63;6.00;;;0.60;99.90;;;;;;10470274;28;20231;-81
2022/01/17 21:01:31;;;;;;;15.23;6.37;;;0.50;99.90;;;;;;10450158;28;20786;-82
2022/01/17 21:06:34;;;;;;;21.67;5.47;;;0.40;99.90;;;;;;10449838;28;20219;-80
2022/01/17 21:11:36;;;;;;;15.53;6.47;;;0.40;99.90;;;;;;10434903;28;20239;-80
2022/01/17 21:16:39;;;;;;;13.97;6.40;;;0.40;99.90;;;;;;10451198;28;20280;-80
2022/01/17 21:21:41;;;;;;;14.43;5.80;;;0.40;99.90;;;;;;10450902;28;20246;-80
2022/01/17 21:26:44;;;;;;;20.27;6.60;;;0.40;99.90;;;;;;10450748;28;20268;-80
2022/01/17 21:31:46;;;;;;;17.20;6.40;;;0.30;99.90;;;;;;10448950;28;20230;-80
2022/01/17 21:36:50;;;;;;;13.27;6.07;;;0.20;99.90;;;;;;10431864;28;20688;-81
2022/01/17 21:41:53;;;;;;;31.93;8.37;;;0.30;99.90;;;;;;10459635;28;20245;-80
2022/01/17 21:46:56;;;;;;;35.07;9.63;;;0.10;99.90;;;;;;10466785;28;20227;-79
2022/01/17 21:51:59;;;;;;;18.27;6.40;;;0.00;99.90;;;;;;10448962;28;20288;-80
2022/01/17 21:57:06;;;;;;;27.93;8.17;;;0.00;99.90;;;;;;10449444;28;20231;-80
2022/01/17 22:02:16;;;;;;;23.60;7.57;;;0.00;99.90;;;;;;10450102;28;20296;-79
2022/01/17 22:07:19;;;;;;;15.90;6.37;;;-0.10;99.90;;;;;;10449916;28;20246;-81
2022/01/17 22:12:21;;;;;;;20.87;6.83;;;0.00;99.90;;;;;;10463553;28;20227;-79
2022/01/17 22:17:48;;;;;;;22.40;7.33;;;-0.20;99.90;;;;;;10453030;28;20250;-79
2022/01/17 22:22:50;;;;;;;14.07;5.97;;;-0.20;99.90;;;;;;10450661;28;20276;-79
2022/01/17 22:27:59;;;;;;;19.93;7.23;;;-0.40;99.90;;;;;;10450046;28;20230;-79
2022/01/17 22:33:03;;;;;;;12.87;6.07;;;-0.20;99.90;;;;;;10452393;28;20222;-80
2022/01/17 22:38:06;;;;;;;12.40;3.80;;;-0.30;99.90;;;;;;10450399;28;20268;-80
2022/01/17 22:43:28;;;;;;;10.40;4.10;;;8.10;99.90;;;;;;10452063;28;20682;-80
2022/01/17 22:48:35;;;;;;;12.10;3.83;;;11.10;99.90;;;;;;10450279;28;20195;-82
2022/01/17 22:53:37;;;;;;;7.53;3.63;;;12.10;97.70;;;;;;10451411;28;20277;-80
2022/01/17 22:58:41;;;;;;;10.07;3.97;;;12.40;94.50;;;;;;10450137;28;20622;-79
2022/01/17 23:03:43;;;;;;;8.60;3.80;;;12.80;92.40;;;;;;10451221;28;20308;-79
2022/01/17 23:08:46;;;;;;;8.07;3.83;;;12.70;91.50;;;;;;10449720;28;20735;-79
2022/01/17 23:13:48;;;;;;;9.17;3.40;;;12.80;90.70;;;;;;10450427;28;20227;-79
2022/01/17 23:18:57;;;;;;;8.73;3.77;;;13.10;89.30;;;;;;10450928;28;20988;-78
2022/01/17 23:23:59;;;;;;;6.47;3.33;;;13.00;88.00;;;;;;10450003;28;20371;-78
2022/01/17 23:29:03;;;;;;;9.00;4.60;;;13.20;86.60;;;;;;10449937;28;20282;-78
2022/01/17 23:34:06;;;;;;;8.20;4.03;;;12.70;85.70;;;;;;10448518;28;20230;-78
2022/01/17 23:39:12;;;;;;;8.10;3.10;;;13.00;85.40;;;;;;10449746;28;20286;-78
2022/01/17 23:44:16;;;;;;;11.03;4.20;;;12.90;85.30;;;;;;10450353;28;20232;-78
2022/01/17 23:49:20;;;;;;;7.00;3.30;;;13.00;84.50;;;;;;10448518;28;20565;-78
2022/01/17 23:54:22;;;;;;;5.87;2.90;;;12.80;84.40;;;;;;10449722;28;20231;-79
2022/01/17 23:59:31;;;;;;;8.47;3.43;;;13.10;83.40;;;;;;10449866;28;20237;-79
